createdAt,value
2018-07-26T00:03:01.457Z,11.82
2018-07-26T00:08:56.472Z,18.4
2018-07-26T00:14:51.458Z,15.79
2018-07-26T00:20:46.478Z,12.14
2018-07-26T00:26:41.454Z,15.66
2018-07-26T00:32:36.504Z,12.16
2018-07-26T00:38:31.453Z,13.07
2018-07-26T00:44:26.452Z,11.79
2018-07-26T00:50:21.451Z,14.04
2018-07-26T00:56:16.473Z,15.4
2018-07-26T01:02:11.454Z,11.96
2018-07-26T01:08:06.439Z,14.73
2018-07-26T01:14:01.464Z,11.63
2018-07-26T01:19:56.479Z,11.05
2018-07-26T01:25:51.465Z,13.31
2018-07-26T01:31:46.434Z,13.97
2018-07-26T01:37:41.492Z,16.93
2018-07-26T01:43:36.476Z,12.5
2018-07-26T01:49:31.470Z,12.42
2018-07-26T01:55:26.471Z,14.99
2018-07-26T02:01:21.475Z,12.73
2018-07-26T02:07:16.503Z,11.34
2018-07-26T02:13:11.496Z,13.6
2018-07-26T02:19:06.463Z,12.84
2018-07-26T02:25:01.494Z,14.17
2018-07-26T02:30:56.503Z,13.41
2018-07-26T02:36:51.545Z,13.68
2018-07-26T02:42:46.471Z,11.07
2018-07-26T02:48:41.479Z,13.7
2018-07-26T02:54:36.470Z,13.44
2018-07-26T03:00:31.529Z,11.81
2018-07-26T03:06:26.477Z,13.54
2018-07-26T03:12:21.478Z,12.71
2018-07-26T03:18:16.557Z,15.09
2018-07-26T03:24:11.494Z,18.3
2018-07-26T03:30:06.464Z,15.55
2018-07-26T03:36:01.459Z,13.4
2018-07-26T03:41:56.468Z,11.51
2018-07-26T03:47:51.476Z,13.81
2018-07-26T03:53:46.483Z,12.22
2018-07-26T03:59:41.472Z,14.77
2018-07-26T04:05:36.567Z,15.28
2018-07-26T04:11:31.505Z,21.11
2018-07-26T04:17:26.477Z,14.81
2018-07-26T04:23:21.463Z,18.42
2018-07-26T04:29:16.481Z,15.98
2018-07-26T04:35:11.497Z,17.51
2018-07-26T04:41:06.497Z,14.27
2018-07-26T04:47:01.542Z,15.8
2018-07-26T04:52:56.602Z,14.62
2018-07-26T04:58:51.527Z,13.91
2018-07-26T05:04:46.487Z,14.89
2018-07-26T05:10:41.474Z,23.78
2018-07-26T05:16:36.482Z,18.48
2018-07-26T05:22:31.473Z,16.27
2018-07-26T05:28:26.490Z,19.54
2018-07-26T05:34:21.519Z,18.6
2018-07-26T05:40:16.503Z,17.23
2018-07-26T05:46:11.555Z,18.6
2018-07-26T05:52:06.498Z,26.69
2018-07-26T05:58:01.490Z,20.1
2018-07-26T06:03:56.505Z,17.29
2018-07-26T06:09:51.487Z,19.64
2018-07-26T06:15:46.489Z,17.57
2018-07-26T06:21:41.524Z,20.13
2018-07-26T06:27:36.484Z,19.6
2018-07-26T06:33:31.539Z,17.07
2018-07-26T06:39:26.490Z,21.03
2018-07-26T06:45:21.508Z,18.57
2018-07-26T06:51:16.540Z,24.57
2018-07-26T06:57:11.503Z,18.14
2018-07-26T07:03:06.503Z,18.84
2018-07-26T07:09:01.504Z,22.44
2018-07-26T07:14:56.505Z,22.68
2018-07-26T07:20:51.475Z,32.2
2018-07-26T07:26:46.540Z,22.84
2018-07-26T07:32:41.500Z,25.58
2018-07-26T07:38:36.513Z,27.36
2018-07-26T07:44:31.540Z,31.38
2018-07-26T07:50:26.543Z,31.17
2018-07-26T07:56:21.513Z,25.58
2018-07-26T08:02:16.495Z,30.2
2018-07-26T08:08:11.510Z,38.25
2018-07-26T08:14:06.513Z,42
2018-07-26T08:20:01.545Z,29.19
2018-07-26T08:25:56.580Z,22.88
2018-07-26T08:31:51.499Z,27.83
2018-07-26T08:37:46.516Z,22.63
2018-07-26T08:43:41.592Z,28.4
2018-07-26T08:49:36.515Z,30.71
2018-07-26T08:55:31.538Z,26.9
2018-07-26T09:01:26.522Z,29.08
2018-07-26T09:07:21.531Z,22.59
2018-07-26T09:13:16.533Z,23.22
2018-07-26T09:19:11.508Z,24.87
2018-07-26T09:25:06.595Z,21.54
2018-07-26T09:31:01.525Z,22.17
2018-07-26T09:36:56.547Z,22.07
2018-07-26T09:42:51.503Z,23.43
2018-07-26T09:48:46.563Z,26.23
2018-07-26T09:54:41.564Z,20.7
2018-07-26T10:00:36.703Z,19.16
2018-07-26T10:06:31.519Z,25.35
2018-07-26T10:12:26.547Z,21.93
2018-07-26T10:18:21.519Z,21.84
2018-07-26T10:24:16.520Z,18.22
2018-07-26T10:30:11.550Z,24.91
2018-07-26T10:36:06.601Z,25.24
2018-07-26T10:42:01.549Z,21.38
2018-07-26T10:47:56.521Z,10.64
2018-07-26T10:53:51.513Z,22.1
2018-07-26T10:59:46.528Z,14.29
2018-07-26T11:05:41.580Z,35.18
2018-07-26T11:11:36.528Z,22.68
2018-07-26T11:17:31.538Z,16.49
2018-07-26T11:23:26.552Z,14.47
2018-07-26T11:29:21.562Z,27.05
2018-07-26T11:35:16.521Z,20.47
2018-07-26T11:41:11.521Z,19.95
2018-07-26T11:47:06.550Z,19.64
2018-07-26T11:53:01.593Z,20.66
2018-07-26T11:58:56.574Z,20.83
2018-07-26T12:04:51.569Z,21.51
2018-07-26T12:10:46.555Z,17.57
2018-07-26T12:16:41.552Z,20.94
2018-07-26T12:22:36.574Z,20.26
2018-07-26T12:28:31.533Z,19.58
2018-07-26T12:34:26.558Z,19.66
2018-07-26T12:40:21.548Z,20.87
2018-07-26T12:46:16.564Z,20.02
2018-07-26T12:52:11.557Z,20
2018-07-26T12:58:06.574Z,22.31
2018-07-26T13:04:01.585Z,19.73
2018-07-26T13:09:56.555Z,18.91
2018-07-26T13:15:51.558Z,17.8
2018-07-26T13:21:46.596Z,19.57
2018-07-26T13:27:41.577Z,19.46
2018-07-26T13:33:36.537Z,17.93
2018-07-26T13:39:31.612Z,19.36
2018-07-26T13:45:26.548Z,13.85
2018-07-26T13:51:21.587Z,13.79
2018-07-26T13:57:16.563Z,21.54
2018-07-26T14:03:11.560Z,14.75
2018-07-26T14:09:06.573Z,15.16
2018-07-26T14:15:01.565Z,17
2018-07-26T14:20:56.593Z,15
2018-07-26T14:26:51.613Z,12.63
2018-07-26T14:32:46.584Z,35.63
2018-07-26T14:38:41.605Z,20.19
2018-07-26T14:44:36.569Z,14.68
2018-07-26T14:50:31.598Z,13.5
2018-07-26T14:56:26.559Z,17.7
2018-07-26T15:02:21.550Z,12.97
2018-07-26T15:08:16.551Z,14.17
2018-07-26T15:14:11.611Z,12.76
2018-07-26T16:25:11.617Z,12.63
2018-07-26T16:25:11.639Z,9.93
2018-07-26T16:25:11.671Z,13.5
2018-07-26T16:25:11.689Z,13.5
2018-07-26T16:25:11.716Z,13.5
2018-07-26T16:25:11.730Z,13.5
2018-07-26T16:25:11.768Z,13.5
2018-07-26T16:25:11.778Z,13.5
2018-07-26T16:25:11.822Z,13.5
2018-07-26T16:25:11.858Z,13.5
2018-07-26T16:25:11.867Z,13.5
2018-07-26T16:25:11.908Z,13.5
2018-07-26T16:31:06.575Z,15.4
2018-07-26T16:37:01.574Z,13.32
2018-07-26T16:42:56.573Z,13.77
2018-07-26T16:48:51.575Z,17.03
2018-07-26T16:54:46.566Z,18.47
2018-07-26T17:00:41.580Z,15.07
2018-07-26T17:06:36.584Z,15.31
2018-07-26T17:12:31.652Z,11.2
2018-07-26T17:18:26.600Z,13.17
2018-07-26T17:24:21.572Z,10.82
2018-07-26T17:30:16.589Z,8.9
2018-07-26T17:36:11.589Z,13.91
2018-07-26T17:42:06.603Z,15.13
2018-07-26T17:48:01.586Z,13.56
2018-07-26T17:53:56.608Z,19.2
2018-07-26T17:59:51.605Z,12.96
2018-07-26T18:05:46.628Z,13.36
2018-07-26T18:11:41.622Z,16.11
2018-07-26T18:17:36.590Z,16.01
2018-07-26T18:23:31.607Z,13.63
2018-07-26T18:29:26.608Z,15.39
2018-07-26T18:35:21.617Z,13.48
2018-07-26T18:41:16.615Z,14.99
2018-07-26T18:47:11.594Z,11.46
2018-07-26T18:53:06.661Z,12.82
2018-07-26T18:59:01.660Z,12.53
2018-07-26T19:04:56.612Z,12.82
2018-07-26T19:10:51.606Z,15.72
2018-07-26T19:16:46.605Z,14.12
2018-07-26T19:22:41.642Z,11.7
2018-07-26T19:28:36.613Z,13.44
2018-07-26T19:34:31.627Z,12.51
2018-07-26T19:40:26.657Z,24.59
2018-07-26T19:46:21.613Z,21.61
2018-07-26T19:52:16.604Z,15.05
2018-07-26T19:58:11.606Z,16.77
2018-07-26T20:04:06.631Z,9.71
2018-07-26T20:10:01.709Z,11.91
2018-07-26T20:15:56.615Z,14.12
2018-07-26T20:21:51.605Z,10.4
2018-07-26T20:27:46.616Z,12.38
2018-07-26T20:33:41.642Z,12.22
2018-07-26T20:39:36.618Z,13.31
2018-07-26T20:45:31.626Z,13.99
2018-07-26T20:51:26.610Z,15.16
2018-07-26T20:57:21.644Z,12.82
2018-07-26T21:03:16.621Z,14.42
2018-07-26T21:09:11.610Z,14.23
2018-07-26T21:15:06.616Z,28.12
2018-07-26T21:21:01.623Z,16.44
2018-07-26T21:26:56.679Z,12.13
2018-07-26T21:32:51.632Z,12.23
2018-07-26T21:38:46.703Z,15.45
2018-07-26T21:44:41.675Z,15.81
2018-07-26T21:50:36.634Z,16.5
2018-07-26T21:56:31.618Z,15.32
2018-07-26T22:02:26.746Z,13.12
2018-07-26T22:08:21.621Z,15.72
2018-07-26T22:14:16.624Z,26.86
2018-07-26T22:20:11.630Z,17.49
2018-07-26T22:26:06.623Z,39.91
2018-07-26T22:32:01.647Z,11.42
2018-07-26T22:37:56.625Z,12.36
2018-07-26T22:49:46.657Z,10.26
2018-07-26T22:55:41.623Z,9.58
2018-07-26T23:01:36.630Z,9.86
2018-07-26T23:07:31.645Z,13.21
2018-07-26T23:13:26.635Z,15.31
2018-07-26T23:19:21.641Z,12.24
2018-07-26T23:25:16.704Z,11.85
2018-07-26T23:31:11.650Z,8.73
2018-07-26T23:37:06.663Z,11.99
2018-07-26T23:43:01.638Z,11.5
2018-07-26T23:48:56.642Z,12.22
2018-07-26T23:54:51.641Z,10.26
